createdAt,value
2022-12-15T00:03:53.296Z,98190.97
2022-12-15T00:08:36.499Z,98189.22
2022-12-15T00:12:57.935Z,98196.75
2022-12-15T00:17:18.188Z,98183.13
2022-12-15T00:21:38.006Z,98175.41
2022-12-15T00:25:58.450Z,98181.25
2022-12-15T00:30:18.206Z,98175.16
2022-12-15T00:34:38.306Z,98185.31
2022-12-15T00:38:45.512Z,98193.06
2022-12-15T00:42:49.436Z,98191.31
2022-12-15T00:46:57.232Z,98189.66
2022-12-15T00:50:59.082Z,98188.75
2022-12-15T00:55:19.332Z,98192.16
2022-12-15T00:59:39.589Z,98199.66
2022-12-15T01:03:59.779Z,98207.19
2022-12-15T01:08:19.794Z,98200.47
2022-12-15T01:12:39.849Z,98201.28
2022-12-15T01:16:59.995Z,98214.09
2022-12-15T01:21:04.871Z,98217.41
2022-12-15T01:25:08.210Z,98221.69
2022-12-15T01:29:09.608Z,98227.75
2022-12-15T01:33:12.229Z,98228.63
2022-12-15T01:37:13.597Z,98221.00
2022-12-15T01:41:15.116Z,98231.06
2022-12-15T01:45:28.651Z,98222.44
2022-12-15T01:49:32.110Z,98233.31
2022-12-15T01:53:37.748Z,98242.66
2022-12-15T01:57:39.495Z,98254.41
2022-12-15T02:01:41.382Z,98255.16
2022-12-15T02:05:43.280Z,98252.66
2022-12-15T02:09:48.401Z,98245.00
2022-12-15T02:14:05.726Z,98238.28
2022-12-15T02:18:20.023Z,98242.50
2022-12-15T02:22:33.967Z,98251.88
2022-12-15T02:27:07.911Z,98257.78
2022-12-15T02:31:51.024Z,98257.78
2022-12-15T02:35:57.782Z,98265.44
2022-12-15T02:40:00.153Z,98263.78
2022-12-15T02:44:04.505Z,98267.28
2022-12-15T02:48:22.338Z,98271.53
2022-12-15T02:53:02.700Z,98263.84
2022-12-15T02:57:19.861Z,98267.28
2022-12-15T03:01:29.225Z,98263.78
2022-12-15T03:05:31.842Z,98265.31
2022-12-15T03:09:33.588Z,98256.59
2022-12-15T03:13:35.212Z,98268.25
2022-12-15T03:17:38.237Z,98268.81
2022-12-15T03:21:39.731Z,98265.00
2022-12-15T03:25:41.221Z,98265.66
2022-12-15T03:29:42.622Z,98261.41
2022-12-15T03:33:44.016Z,98263.09
2022-12-15T03:37:45.413Z,98262.09
2022-12-15T03:41:46.743Z,98255.13
2022-12-15T03:45:48.632Z,98252.44
2022-12-15T03:49:50.008Z,98260.22
2022-12-15T03:53:52.104Z,98256.06
2022-12-15T03:57:53.504Z,98263.00
2022-12-15T04:01:55.322Z,98267.31
2022-12-15T04:05:56.729Z,98272.56
2022-12-15T04:09:58.119Z,98264.97
2022-12-15T04:13:59.451Z,98271.94
2022-12-15T04:18:02.996Z,98263.56
2022-12-15T04:22:04.348Z,98269.53
2022-12-15T04:26:24.500Z,98278.00
2022-12-15T04:30:44.758Z,98288.81
2022-12-15T04:35:04.850Z,98281.25
2022-12-15T04:39:24.713Z,98285.56
2022-12-15T04:43:45.500Z,98291.66
2022-12-15T04:48:05.989Z,98276.56
2022-12-15T04:52:26.455Z,98285.13
2022-12-15T04:56:46.591Z,98296.91
2022-12-15T05:01:10.477Z,98292.59
2022-12-15T05:05:30.651Z,98294.91
2022-12-15T05:09:50.807Z,98307.53
2022-12-15T05:14:10.750Z,98309.25
2022-12-15T05:18:30.842Z,98313.47
2022-12-15T05:22:50.966Z,98311.81
2022-12-15T05:27:10.872Z,98310.09
2022-12-15T05:31:31.093Z,98304.03
2022-12-15T05:35:32.547Z,98308.38
2022-12-15T05:39:34.122Z,98304.09
2022-12-15T05:43:35.888Z,98306.63
2022-12-15T05:47:37.465Z,98316.59
2022-12-15T05:51:42.511Z,98325.75
2022-12-15T05:55:43.838Z,98307.81
2022-12-15T05:59:46.088Z,98328.88
2022-12-15T06:03:48.126Z,98334.53
2022-12-15T06:07:49.870Z,98323.34
2022-12-15T06:11:51.337Z,98318.97
2022-12-15T06:16:02.208Z,98313.47
2022-12-15T06:20:04.269Z,98315.78
2022-12-15T06:24:06.787Z,98330.66
2022-12-15T06:28:08.447Z,98333.88
2022-12-15T06:32:09.850Z,98329.53
2022-12-15T06:36:17.753Z,98330.94
2022-12-15T06:40:19.168Z,98329.94
2022-12-15T06:44:20.637Z,98333.91
2022-12-15T06:48:25.040Z,98327.69
2022-12-15T06:52:26.411Z,98330.09
2022-12-15T06:56:34.073Z,98324.56
2022-12-15T07:00:36.760Z,98324.19
2022-12-15T07:04:38.415Z,98308.63
2022-12-15T07:08:41.854Z,98301.69
2022-12-15T07:12:43.571Z,98313.94
2022-12-15T07:16:46.030Z,98322.88
2022-12-15T07:20:47.531Z,98322.94
2022-12-15T07:24:51.481Z,98319.50
2022-12-15T07:28:54.241Z,98326.19
2022-12-15T07:32:56.376Z,98349.22
2022-12-15T07:36:58.127Z,98358.41
2022-12-15T07:41:04.674Z,98348.84
2022-12-15T07:45:08.034Z,98357.47
2022-12-15T07:49:10.271Z,98354.28
2022-12-15T07:53:11.784Z,98352.75
2022-12-15T07:57:13.325Z,98378.03
2022-12-15T08:01:16.579Z,98380.94
2022-12-15T08:05:18.082Z,98394.25
2022-12-15T08:09:20.040Z,98405.09
2022-12-15T08:33:35.233Z,98416.63
2022-12-15T08:37:36.648Z,98408.84
2022-12-15T08:41:38.067Z,98414.47
2022-12-15T08:45:41.076Z,98412.47
2022-12-15T08:49:43.273Z,98429.88
2022-12-15T08:53:45.861Z,98433.91
2022-12-15T08:57:47.475Z,98434.34
2022-12-15T09:01:49.061Z,98423.16
2022-12-15T09:05:50.908Z,98427.13
2022-12-15T09:09:52.401Z,98424.59
2022-12-15T09:13:54.903Z,98425.75
2022-12-15T09:17:56.320Z,98425.22
2022-12-15T09:21:59.813Z,98421.31
2022-12-15T09:26:02.929Z,98421.59
2022-12-15T09:30:04.946Z,98423.47
2022-12-15T09:34:06.778Z,98426.81
2022-12-15T09:38:08.189Z,98430.34
2022-12-15T09:42:23.631Z,98437.22
2022-12-15T09:46:53.505Z,98442.84
2022-12-15T09:50:57.565Z,98448.06
2022-12-15T09:55:01.981Z,98443.84
2022-12-15T09:59:16.935Z,98441.06
2022-12-15T10:03:22.958Z,98429.72
2022-12-15T10:07:34.585Z,98416.81
2022-12-15T10:11:56.965Z,98426.78
2022-12-15T10:16:20.831Z,98430.72
2022-12-15T10:20:26.295Z,98418.63
2022-12-15T10:25:07.967Z,98413.31
2022-12-15T10:29:06.555Z,98410.75
2022-12-15T10:33:24.460Z,98403.88
2022-12-15T10:37:25.852Z,98409.88
2022-12-15T10:41:33.085Z,98404.78
2022-12-15T10:45:39.267Z,98392.00
2022-12-15T10:49:40.606Z,98380.06
2022-12-15T10:54:00.863Z,98364.84
2022-12-15T10:58:14.243Z,98364.78
2022-12-15T11:02:33.333Z,98358.16
2022-12-15T11:06:37.947Z,98355.69
2022-12-15T11:11:12.180Z,98340.63
2022-12-15T11:15:22.647Z,98341.84
2022-12-15T11:19:44.410Z,98326.69
2022-12-15T11:23:58.367Z,98326.06
2022-12-15T11:28:03.731Z,98316.84
2022-12-15T11:32:07.572Z,98302.34
2022-12-15T11:36:18.354Z,98298.25
2022-12-15T11:40:38.119Z,98285.59
2022-12-15T11:44:52.302Z,98275.66
2022-12-15T11:49:08.998Z,98274.06
2022-12-15T11:53:54.299Z,98262.03
2022-12-15T11:58:10.519Z,98257.66
2022-12-15T12:02:27.149Z,98255.97
2022-12-15T12:06:36.968Z,98246.84
2022-12-15T12:10:53.714Z,98246.94
2022-12-15T12:15:08.387Z,98251.25
2022-12-15T12:19:15.702Z,98267.44
2022-12-15T12:23:32.176Z,98262.41
2022-12-15T12:28:08.299Z,98257.34
2022-12-15T12:32:50.590Z,98261.63
2022-12-15T12:37:01.204Z,98253.91
2022-12-15T12:41:47.620Z,98241.88
2022-12-15T12:46:01.867Z,98240.09
2022-12-15T12:50:20.819Z,98227.22
2022-12-15T12:54:57.515Z,98217.78
2022-12-15T12:59:37.985Z,98212.66
2022-12-15T13:04:10.043Z,98209.16
2022-12-15T13:08:28.664Z,98186.91
2022-12-15T13:13:17.955Z,98177.53
2022-12-15T13:21:56.832Z,98153.56
2022-12-15T13:26:33.680Z,98147.63
2022-12-15T13:30:37.564Z,98144.19
2022-12-15T13:39:25.156Z,98132.31
2022-12-15T13:43:50.235Z,98143.41
2022-12-15T13:47:56.344Z,98145.19
2022-12-15T14:01:58.602Z,98148.66
2022-12-15T14:06:32.849Z,98158.00
2022-12-15T14:11:46.081Z,98160.56
2022-12-15T14:15:34.262Z,98160.56
2022-12-15T14:19:41.192Z,98166.50
2022-12-15T14:24:03.925Z,98163.00
2022-12-15T14:28:24.456Z,98148.47
2022-12-15T14:32:56.030Z,98136.47
2022-12-15T14:37:07.195Z,98133.78
2022-12-15T14:41:24.333Z,98135.38
2022-12-15T14:45:30.199Z,98143.81
2022-12-15T14:49:41.088Z,98144.59
2022-12-15T14:53:48.551Z,98160.69
2022-12-15T14:57:52.422Z,98157.19
2022-12-15T15:02:02.786Z,98156.16
2022-12-15T15:06:07.414Z,98156.09
2022-12-15T15:10:23.795Z,98163.66
2022-12-15T15:14:31.830Z,98175.44
2022-12-15T15:18:34.442Z,98177.00
2022-12-15T15:22:43.230Z,98177.75
2022-12-15T15:26:44.636Z,98182.69
2022-12-15T15:30:52.164Z,98191.94
2022-12-15T15:34:58.119Z,98184.13
2022-12-15T15:39:01.198Z,98189.94
2022-12-15T15:43:10.070Z,98193.16
2022-12-15T15:47:21.604Z,98189.63
2022-12-15T15:51:27.326Z,98176.75
2022-12-15T15:55:37.751Z,98184.34
2022-12-15T15:59:42.431Z,98181.66
2022-12-15T16:03:44.369Z,98188.25
2022-12-15T16:07:46.718Z,98187.31
2022-12-15T16:11:48.192Z,98188.09
2022-12-15T16:15:49.885Z,98191.41
2022-12-15T16:19:51.800Z,98190.44
2022-12-15T16:23:54.427Z,98205.66
2022-12-15T16:27:55.812Z,98214.78
2022-12-15T16:31:57.351Z,98208.81
2022-12-15T16:35:59.735Z,98207.84
2022-12-15T16:40:01.138Z,98209.44
2022-12-15T16:44:02.639Z,98213.69
2022-12-15T16:48:04.047Z,98222.16
2022-12-15T16:52:05.570Z,98221.31
2022-12-15T16:56:12.845Z,98222.25
2022-12-15T17:00:20.358Z,98218.91
2022-12-15T17:04:21.981Z,98220.63
2022-12-15T17:08:27.487Z,98222.34
2022-12-15T17:12:30.092Z,98224.88
2022-12-15T17:16:31.484Z,98210.50
2022-12-15T17:20:33.077Z,98212.94
2022-12-15T17:24:34.808Z,98213.84
2022-12-15T17:28:40.562Z,98208.72
2022-12-15T17:32:43.502Z,98202.69
2022-12-15T17:36:45.492Z,98192.47
2022-12-15T17:40:49.181Z,98191.56
2022-12-15T17:44:51.813Z,98197.47
2022-12-15T17:48:53.730Z,98195.81
2022-12-15T17:52:55.094Z,98193.28
2022-12-15T17:56:56.483Z,98195.81
2022-12-15T18:00:57.895Z,98193.25
2022-12-15T18:04:59.566Z,98198.38
2022-12-15T18:09:01.080Z,98188.19
2022-12-15T18:13:02.819Z,98185.56
2022-12-15T18:17:04.196Z,98181.31
2022-12-15T18:21:16.801Z,98183.88
2022-12-15T18:25:26.661Z,98180.44
2022-12-15T18:29:28.012Z,98177.91
2022-12-15T18:33:30.839Z,98177.91
2022-12-15T18:37:34.255Z,98173.63
2022-12-15T18:41:35.590Z,98180.38
2022-12-15T18:45:37.108Z,98188.03
2022-12-15T18:49:39.061Z,98187.16
2022-12-15T18:53:41.539Z,98185.34
2022-12-15T18:57:43.340Z,98192.09
2022-12-15T19:01:47.519Z,98185.22
2022-12-15T19:05:53.366Z,98194.44
2022-12-15T19:09:54.905Z,98189.25
2022-12-15T19:14:00.184Z,98193.41
2022-12-15T19:18:20.279Z,98198.41
2022-12-15T19:22:27.910Z,98197.50
2022-12-15T19:26:29.379Z,98190.63
2022-12-15T19:30:41.598Z,98188.88
2022-12-15T19:34:43.799Z,98200.69
2022-12-15T19:38:46.494Z,98197.31
2022-12-15T19:42:48.961Z,98193.91
2022-12-15T19:46:50.419Z,98190.50
2022-12-15T19:50:52.075Z,98193.06
2022-12-15T19:54:53.787Z,98193.88
2022-12-15T19:58:56.680Z,98198.09
2022-12-15T20:02:58.210Z,98199.75
2022-12-15T20:07:04.073Z,98211.66
2022-12-15T20:11:10.768Z,98212.44
2022-12-15T20:15:22.445Z,98209.84
2022-12-15T20:19:23.831Z,98207.25
2022-12-15T20:23:27.041Z,98207.22
2022-12-15T20:27:28.531Z,98211.38
2022-12-15T20:31:30.032Z,98215.59
2022-12-15T20:35:34.607Z,98223.94
2022-12-15T20:39:36.126Z,98210.34
2022-12-15T20:43:38.033Z,98215.34
2022-12-15T20:47:41.514Z,98221.25
2022-12-15T20:51:44.060Z,98228.03
2022-12-15T20:55:46.439Z,98225.50
2022-12-15T20:59:47.807Z,98229.69
2022-12-15T21:03:51.998Z,98235.59
2022-12-15T21:07:53.621Z,98246.56
2022-12-15T21:11:55.215Z,98253.28
2022-12-15T21:15:57.235Z,98258.41
2022-12-15T21:19:58.748Z,98245.56
2022-12-15T21:24:01.889Z,98254.81
2022-12-15T21:28:11.500Z,98252.25
2022-12-15T21:32:13.160Z,98262.41
2022-12-15T21:36:16.935Z,98270.03
2022-12-15T21:40:24.989Z,98270.00
2022-12-15T21:44:26.456Z,98264.88
2022-12-15T21:48:46.755Z,98267.44
2022-12-15T21:52:48.658Z,98275.94
2022-12-15T21:56:50.515Z,98270.88
2022-12-15T22:00:51.989Z,98275.13
2022-12-15T22:04:54.872Z,98279.41
2022-12-15T22:09:01.294Z,98281.91
2022-12-15T22:13:03.487Z,98278.50
2022-12-15T22:17:16.887Z,98280.28
2022-12-15T22:21:18.296Z,98278.56
2022-12-15T22:25:22.781Z,98272.63
2022-12-15T22:29:24.919Z,98277.72
2022-12-15T22:33:28.010Z,98277.69
2022-12-15T22:37:29.506Z,98290.31
2022-12-15T22:41:31.555Z,98281.78
2022-12-15T22:45:32.979Z,98290.28
2022-12-15T22:49:39.843Z,98290.16
2022-12-15T22:53:41.715Z,98282.50
2022-12-15T22:57:54.303Z,98286.63
2022-12-15T23:01:56.009Z,98286.44
2022-12-15T23:05:58.578Z,98284.59
2022-12-15T23:10:18.676Z,98280.19
2022-12-15T23:14:40.570Z,98282.56
2022-12-15T23:18:41.910Z,98284.81
2022-12-15T23:22:43.350Z,98282.91
2022-12-15T23:26:44.764Z,98281.91
2022-12-15T23:30:50.755Z,98281.78
2022-12-15T23:34:52.123Z,98285.84
2022-12-15T23:38:55.465Z,98291.59
2022-12-15T23:42:56.834Z,98290.41
2022-12-15T23:46:58.309Z,98291.09
2022-12-15T23:51:20.059Z,98290.19
2022-12-15T23:55:21.420Z,98300.19
2022-12-15T23:59:22.915Z,98304.38
